sensor_id;sensor_type;location;lat;lon;timestamp;temperature;humidity
20560;DHT22;10438;51.454;6.718;2023-07-20T00:00:25;17.30;99.90
20560;DHT22;10438;51.454;6.718;2023-07-20T00:02:51;17.30;99.90
20560;DHT22;10438;51.454;6.718;2023-07-20T00:05:16;17.30;99.90
20560;DHT22;10438;51.454;6.718;2023-07-20T00:07:47;17.30;99.90
20560;DHT22;10438;51.454;6.718;2023-07-20T00:10:12;17.30;99.90
20560;DHT22;10438;51.454;6.718;2023-07-20T00:12:38;17.30;99.90
20560;DHT22;10438;51.454;6.718;2023-07-20T00:15:04;17.20;99.90
20560;DHT22;10438;51.454;6.718;2023-07-20T00:17:30;17.20;99.90
20560;DHT22;10438;51.454;6.718;2023-07-20T00:19:55;17.10;99.90
20560;DHT22;10438;51.454;6.718;2023-07-20T00:22:21;17.20;99.90
20560;DHT22;10438;51.454;6.718;2023-07-20T00:24:46;17.10;99.90
20560;DHT22;10438;51.454;6.718;2023-07-20T00:27:12;17.10;99.90
20560;DHT22;10438;51.454;6.718;2023-07-20T00:29:38;17.10;99.90
20560;DHT22;10438;51.454;6.718;2023-07-20T00:32:03;17.20;99.90
20560;DHT22;10438;51.454;6.718;2023-07-20T00:34:30;17.10;99.90
20560;DHT22;10438;51.454;6.718;2023-07-20T00:36:56;17.10;99.90
20560;DHT22;10438;51.454;6.718;2023-07-20T00:39:22;17.10;99.90
20560;DHT22;10438;51.454;6.718;2023-07-20T00:41:47;17.10;99.90
20560;DHT22;10438;51.454;6.718;2023-07-20T00:44:13;17.10;99.90
20560;DHT22;10438;51.454;6.718;2023-07-20T00:46:38;17.20;99.90
20560;DHT22;10438;51.454;6.718;2023-07-20T00:49:04;17.10;99.90
20560;DHT22;10438;51.454;6.718;2023-07-20T00:51:30;17.10;99.90
20560;DHT22;10438;51.454;6.718;2023-07-20T00:53:55;17.00;99.90
20560;DHT22;10438;51.454;6.718;2023-07-20T00:56:22;17.00;99.90
20560;DHT22;10438;51.454;6.718;2023-07-20T00:58:47;16.90;99.90
20560;DHT22;10438;51.454;6.718;2023-07-20T01:01:13;16.90;99.90
20560;DHT22;10438;51.454;6.718;2023-07-20T01:03:39;16.80;99.90
20560;DHT22;10438;51.454;6.718;2023-07-20T01:11:48;16.80;99.90
20560;DHT22;10438;51.454;6.718;2023-07-20T01:14:15;16.80;99.90
20560;DHT22;10438;51.454;6.718;2023-07-20T01:16:42;16.80;99.90
20560;DHT22;10438;51.454;6.718;2023-07-20T01:19:07;16.80;99.90
20560;DHT22;10438;51.454;6.718;2023-07-20T01:22:03;16.80;99.90
20560;DHT22;10438;51.454;6.718;2023-07-20T01:25:14;16.80;99.90
20560;DHT22;10438;51.454;6.718;2023-07-20T01:30:55;16.80;99.90
20560;DHT22;10438;51.454;6.718;2023-07-20T01:33:22;16.80;99.90
20560;DHT22;10438;51.454;6.718;2023-07-20T01:35:54;16.80;99.90
20560;DHT22;10438;51.454;6.718;2023-07-20T01:38:20;16.80;99.90
20560;DHT22;10438;51.454;6.718;2023-07-20T01:40:46;16.70;99.90
20560;DHT22;10438;51.454;6.718;2023-07-20T01:43:12;16.50;99.90
20560;DHT22;10438;51.454;6.718;2023-07-20T01:45:38;16.40;99.90
20560;DHT22;10438;51.454;6.718;2023-07-20T01:48:04;16.30;99.90
20560;DHT22;10438;51.454;6.718;2023-07-20T01:50:30;16.20;99.90
20560;DHT22;10438;51.454;6.718;2023-07-20T01:52:56;16.20;99.90
20560;DHT22;10438;51.454;6.718;2023-07-20T01:55:21;16.10;99.90
20560;DHT22;10438;51.454;6.718;2023-07-20T01:57:47;16.10;99.90
20560;DHT22;10438;51.454;6.718;2023-07-20T02:00:13;16.10;99.90
20560;DHT22;10438;51.454;6.718;2023-07-20T02:02:38;16.10;99.90
20560;DHT22;10438;51.454;6.718;2023-07-20T02:05:04;16.10;99.90
20560;DHT22;10438;51.454;6.718;2023-07-20T02:07:29;16.20;99.90
20560;DHT22;10438;51.454;6.718;2023-07-20T02:09:55;16.20;99.90
20560;DHT22;10438;51.454;6.718;2023-07-20T02:12:20;16.30;99.90
20560;DHT22;10438;51.454;6.718;2023-07-20T02:14:46;16.30;99.90
20560;DHT22;10438;51.454;6.718;2023-07-20T02:17:12;16.30;99.90
20560;DHT22;10438;51.454;6.718;2023-07-20T02:19:38;16.40;99.90
20560;DHT22;10438;51.454;6.718;2023-07-20T02:22:04;16.30;99.90
20560;DHT22;10438;51.454;6.718;2023-07-20T02:24:29;16.40;99.90
20560;DHT22;10438;51.454;6.718;2023-07-20T02:26:55;16.40;99.90
20560;DHT22;10438;51.454;6.718;2023-07-20T02:29:20;16.40;99.90
20560;DHT22;10438;51.454;6.718;2023-07-20T02:31:46;16.30;99.90
20560;DHT22;10438;51.454;6.718;2023-07-20T02:34:11;16.20;99.90
20560;DHT22;10438;51.454;6.718;2023-07-20T02:36:37;16.10;99.90
20560;DHT22;10438;51.454;6.718;2023-07-20T02:39:02;16.00;99.90
20560;DHT22;10438;51.454;6.718;2023-07-20T02:41:33;16.00;99.90
20560;DHT22;10438;51.454;6.718;2023-07-20T02:43:58;16.00;99.90
20560;DHT22;10438;51.454;6.718;2023-07-20T02:46:24;15.90;99.90
20560;DHT22;10438;51.454;6.718;2023-07-20T02:48:50;15.90;99.90
20560;DHT22;10438;51.454;6.718;2023-07-20T02:51:15;15.90;99.90
20560;DHT22;10438;51.454;6.718;2023-07-20T02:53:41;15.90;99.90
20560;DHT22;10438;51.454;6.718;2023-07-20T02:56:07;15.90;99.90
20560;DHT22;10438;51.454;6.718;2023-07-20T02:58:34;15.80;99.90
20560;DHT22;10438;51.454;6.718;2023-07-20T03:01:02;15.80;99.90
20560;DHT22;10438;51.454;6.718;2023-07-20T03:03:28;15.80;99.90
20560;DHT22;10438;51.454;6.718;2023-07-20T03:05:54;15.80;99.90
20560;DHT22;10438;51.454;6.718;2023-07-20T03:08:21;15.80;99.90
20560;DHT22;10438;51.454;6.718;2023-07-20T03:10:47;15.90;99.90
20560;DHT22;10438;51.454;6.718;2023-07-20T03:13:12;15.90;99.90
20560;DHT22;10438;51.454;6.718;2023-07-20T03:15:39;15.90;99.90
20560;DHT22;10438;51.454;6.718;2023-07-20T03:18:05;16.00;99.90
20560;DHT22;10438;51.454;6.718;2023-07-20T03:20:31;16.00;99.90
20560;DHT22;10438;51.454;6.718;2023-07-20T03:22:56;16.00;99.90
20560;DHT22;10438;51.454;6.718;2023-07-20T03:25:22;16.00;99.90
20560;DHT22;10438;51.454;6.718;2023-07-20T03:27:48;16.00;99.90
20560;DHT22;10438;51.454;6.718;2023-07-20T03:30:13;16.00;99.90
20560;DHT22;10438;51.454;6.718;2023-07-20T03:32:39;16.10;99.90
20560;DHT22;10438;51.454;6.718;2023-07-20T03:35:05;16.10;99.90
20560;DHT22;10438;51.454;6.718;2023-07-20T03:37:31;16.10;99.90
20560;DHT22;10438;51.454;6.718;2023-07-20T03:39:56;16.10;99.90
20560;DHT22;10438;51.454;6.718;2023-07-20T03:42:23;16.00;99.90
20560;DHT22;10438;51.454;6.718;2023-07-20T03:44:48;15.90;99.90
20560;DHT22;10438;51.454;6.718;2023-07-20T03:47:14;15.90;99.90
20560;DHT22;10438;51.454;6.718;2023-07-20T03:49:39;15.80;99.90
20560;DHT22;10438;51.454;6.718;2023-07-20T03:52:05;15.80;99.90
20560;DHT22;10438;51.454;6.718;2023-07-20T03:54:31;15.90;99.90
20560;DHT22;10438;51.454;6.718;2023-07-20T03:56:56;15.80;99.90
20560;DHT22;10438;51.454;6.718;2023-07-20T03:59:22;15.90;99.90
20560;DHT22;10438;51.454;6.718;2023-07-20T04:01:47;15.90;99.90
20560;DHT22;10438;51.454;6.718;2023-07-20T04:04:15;15.90;99.90
20560;DHT22;10438;51.454;6.718;2023-07-20T04:06:41;15.90;99.90
20560;DHT22;10438;51.454;6.718;2023-07-20T04:09:10;15.90;99.90
20560;DHT22;10438;51.454;6.718;2023-07-20T04:11:36;15.90;99.90
20560;DHT22;10438;51.454;6.718;2023-07-20T04:14:02;15.90;99.90
20560;DHT22;10438;51.454;6.718;2023-07-20T04:16:27;15.80;99.90
20560;DHT22;10438;51.454;6.718;2023-07-20T04:18:55;15.80;99.90
20560;DHT22;10438;51.454;6.718;2023-07-20T04:21:21;15.80;99.90
20560;DHT22;10438;51.454;6.718;2023-07-20T04:23:47;15.70;99.90
20560;DHT22;10438;51.454;6.718;2023-07-20T04:26:12;15.70;99.90
20560;DHT22;10438;51.454;6.718;2023-07-20T04:28:40;15.60;99.90
20560;DHT22;10438;51.454;6.718;2023-07-20T04:31:14;15.60;99.90
20560;DHT22;10438;51.454;6.718;2023-07-20T04:33:40;15.60;99.90
20560;DHT22;10438;51.454;6.718;2023-07-20T04:36:06;15.60;99.90
20560;DHT22;10438;51.454;6.718;2023-07-20T04:38:32;15.60;99.90
20560;DHT22;10438;51.454;6.718;2023-07-20T04:40:58;15.60;99.90
20560;DHT22;10438;51.454;6.718;2023-07-20T04:43:23;15.60;99.90
20560;DHT22;10438;51.454;6.718;2023-07-20T04:45:49;15.60;99.90
20560;DHT22;10438;51.454;6.718;2023-07-20T04:48:16;15.60;99.90
20560;DHT22;10438;51.454;6.718;2023-07-20T04:50:44;15.60;99.90
20560;DHT22;10438;51.454;6.718;2023-07-20T04:53:13;15.70;99.90
20560;DHT22;10438;51.454;6.718;2023-07-20T04:55:40;15.80;99.90
20560;DHT22;10438;51.454;6.718;2023-07-20T04:58:06;15.80;99.90
20560;DHT22;10438;51.454;6.718;2023-07-20T05:00:33;15.90;99.90
20560;DHT22;10438;51.454;6.718;2023-07-20T05:02:59;15.80;99.90
20560;DHT22;10438;51.454;6.718;2023-07-20T05:05:25;15.90;99.90
20560;DHT22;10438;51.454;6.718;2023-07-20T05:07:50;15.90;99.90
20560;DHT22;10438;51.454;6.718;2023-07-20T05:10:16;15.90;99.90
20560;DHT22;10438;51.454;6.718;2023-07-20T05:12:42;15.90;99.90
20560;DHT22;10438;51.454;6.718;2023-07-20T05:15:07;15.90;99.90
20560;DHT22;10438;51.454;6.718;2023-07-20T05:17:33;15.80;99.90
20560;DHT22;10438;51.454;6.718;2023-07-20T05:19:59;15.90;99.90
20560;DHT22;10438;51.454;6.718;2023-07-20T05:22:24;15.90;99.90
20560;DHT22;10438;51.454;6.718;2023-07-20T05:24:50;15.90;99.90
20560;DHT22;10438;51.454;6.718;2023-07-20T05:27:15;15.80;99.90
20560;DHT22;10438;51.454;6.718;2023-07-20T05:29:45;15.80;99.90
20560;DHT22;10438;51.454;6.718;2023-07-20T05:32:10;15.80;99.90
20560;DHT22;10438;51.454;6.718;2023-07-20T05:34:36;15.90;99.90
20560;DHT22;10438;51.454;6.718;2023-07-20T05:37:01;16.00;99.90
20560;DHT22;10438;51.454;6.718;2023-07-20T05:39:27;16.00;99.90
20560;DHT22;10438;51.454;6.718;2023-07-20T05:41:52;15.90;99.90
20560;DHT22;10438;51.454;6.718;2023-07-20T05:44:18;16.00;99.90
20560;DHT22;10438;51.454;6.718;2023-07-20T05:46:43;16.00;99.90
20560;DHT22;10438;51.454;6.718;2023-07-20T05:49:09;16.00;99.90
20560;DHT22;10438;51.454;6.718;2023-07-20T05:51:35;16.00;99.90
20560;DHT22;10438;51.454;6.718;2023-07-20T05:54:01;16.00;99.90
20560;DHT22;10438;51.454;6.718;2023-07-20T05:56:26;16.00;99.90
20560;DHT22;10438;51.454;6.718;2023-07-20T05:58:52;16.00;99.90
20560;DHT22;10438;51.454;6.718;2023-07-20T06:01:17;16.00;99.90
20560;DHT22;10438;51.454;6.718;2023-07-20T06:03:44;16.00;99.90
20560;DHT22;10438;51.454;6.718;2023-07-20T06:06:10;16.00;99.90
20560;DHT22;10438;51.454;6.718;2023-07-20T06:08:37;16.00;99.90
20560;DHT22;10438;51.454;6.718;2023-07-20T06:11:03;16.10;99.90
20560;DHT22;10438;51.454;6.718;2023-07-20T06:13:28;16.10;99.90
20560;DHT22;10438;51.454;6.718;2023-07-20T06:15:54;16.20;99.90
20560;DHT22;10438;51.454;6.718;2023-07-20T06:18:22;16.20;99.90
20560;DHT22;10438;51.454;6.718;2023-07-20T06:20:51;16.10;99.90
20560;DHT22;10438;51.454;6.718;2023-07-20T06:23:18;16.10;99.90
20560;DHT22;10438;51.454;6.718;2023-07-20T06:25:44;16.00;99.90
20560;DHT22;10438;51.454;6.718;2023-07-20T06:28:09;16.00;99.90
20560;DHT22;10438;51.454;6.718;2023-07-20T06:30:35;16.00;99.90
20560;DHT22;10438;51.454;6.718;2023-07-20T06:33:00;16.10;99.90
20560;DHT22;10438;51.454;6.718;2023-07-20T06:35:26;16.10;99.90
20560;DHT22;10438;51.454;6.718;2023-07-20T06:37:52;16.10;99.90
20560;DHT22;10438;51.454;6.718;2023-07-20T06:40:18;16.10;99.90
20560;DHT22;10438;51.454;6.718;2023-07-20T06:42:44;16.10;99.90
20560;DHT22;10438;51.454;6.718;2023-07-20T06:45:09;16.10;99.90
20560;DHT22;10438;51.454;6.718;2023-07-20T06:47:38;16.10;99.90
20560;DHT22;10438;51.454;6.718;2023-07-20T06:50:05;16.10;99.90
20560;DHT22;10438;51.454;6.718;2023-07-20T06:52:31;16.10;99.90
20560;DHT22;10438;51.454;6.718;2023-07-20T06:54:57;16.10;99.90
20560;DHT22;10438;51.454;6.718;2023-07-20T06:57:22;16.10;99.90
20560;DHT22;10438;51.454;6.718;2023-07-20T06:59:48;16.20;99.90
20560;DHT22;10438;51.454;6.718;2023-07-20T07:02:14;16.20;99.90
20560;DHT22;10438;51.454;6.718;2023-07-20T07:04:39;16.20;99.90
20560;DHT22;10438;51.454;6.718;2023-07-20T07:07:05;16.20;99.90
20560;DHT22;10438;51.454;6.718;2023-07-20T07:09:31;16.30;99.90
20560;DHT22;10438;51.454;6.718;2023-07-20T07:11:56;16.30;99.90
20560;DHT22;10438;51.454;6.718;2023-07-20T07:14:22;16.40;99.90
20560;DHT22;10438;51.454;6.718;2023-07-20T07:16:48;16.50;99.90
20560;DHT22;10438;51.454;6.718;2023-07-20T07:19:13;16.60;99.90
20560;DHT22;10438;51.454;6.718;2023-07-20T07:21:39;16.70;99.90
20560;DHT22;10438;51.454;6.718;2023-07-20T07:24:05;16.80;99.90
20560;DHT22;10438;51.454;6.718;2023-07-20T07:26:32;16.90;99.90
20560;DHT22;10438;51.454;6.718;2023-07-20T07:28:58;17.00;99.90
20560;DHT22;10438;51.454;6.718;2023-07-20T07:31:25;17.00;99.90
20560;DHT22;10438;51.454;6.718;2023-07-20T07:33:51;17.10;99.90
20560;DHT22;10438;51.454;6.718;2023-07-20T07:36:16;17.30;99.90
20560;DHT22;10438;51.454;6.718;2023-07-20T07:38:42;17.30;99.90
20560;DHT22;10438;51.454;6.718;2023-07-20T07:41:08;17.30;99.90
20560;DHT22;10438;51.454;6.718;2023-07-20T07:43:33;17.20;99.90
20560;DHT22;10438;51.454;6.718;2023-07-20T07:46:00;17.30;99.90
20560;DHT22;10438;51.454;6.718;2023-07-20T07:48:26;17.30;99.90
20560;DHT22;10438;51.454;6.718;2023-07-20T07:50:53;17.40;99.90
20560;DHT22;10438;51.454;6.718;2023-07-20T07:53:19;17.50;99.90
20560;DHT22;10438;51.454;6.718;2023-07-20T07:55:47;17.70;99.90
20560;DHT22;10438;51.454;6.718;2023-07-20T07:58:12;17.90;99.90
20560;DHT22;10438;51.454;6.718;2023-07-20T08:00:39;17.90;99.90
20560;DHT22;10438;51.454;6.718;2023-07-20T08:03:08;17.90;99.90
20560;DHT22;10438;51.454;6.718;2023-07-20T08:05:34;18.00;99.90
20560;DHT22;10438;51.454;6.718;2023-07-20T08:08:01;18.00;99.90
20560;DHT22;10438;51.454;6.718;2023-07-20T08:10:27;18.30;99.90
20560;DHT22;10438;51.454;6.718;2023-07-20T08:12:52;18.40;99.90
20560;DHT22;10438;51.454;6.718;2023-07-20T08:15:18;18.70;99.90
20560;DHT22;10438;51.454;6.718;2023-07-20T08:17:43;18.80;99.90
20560;DHT22;10438;51.454;6.718;2023-07-20T08:20:10;19.00;99.90
20560;DHT22;10438;51.454;6.718;2023-07-20T08:22:37;19.00;99.90
20560;DHT22;10438;51.454;6.718;2023-07-20T08:25:03;19.10;99.90
20560;DHT22;10438;51.454;6.718;2023-07-20T08:27:29;19.20;99.90
20560;DHT22;10438;51.454;6.718;2023-07-20T08:29:55;19.20;99.90
20560;DHT22;10438;51.454;6.718;2023-07-20T08:32:20;19.30;99.90
20560;DHT22;10438;51.454;6.718;2023-07-20T08:34:46;19.40;99.90
20560;DHT22;10438;51.454;6.718;2023-07-20T08:37:11;19.50;99.90
20560;DHT22;10438;51.454;6.718;2023-07-20T08:39:37;19.70;99.90
20560;DHT22;10438;51.454;6.718;2023-07-20T08:42:04;19.80;99.90
20560;DHT22;10438;51.454;6.718;2023-07-20T08:44:32;19.80;99.90
20560;DHT22;10438;51.454;6.718;2023-07-20T08:46:59;19.90;99.90
20560;DHT22;10438;51.454;6.718;2023-07-20T08:49:25;20.00;99.90
20560;DHT22;10438;51.454;6.718;2023-07-20T08:51:51;20.20;99.90
20560;DHT22;10438;51.454;6.718;2023-07-20T08:54:17;20.40;99.90
20560;DHT22;10438;51.454;6.718;2023-07-20T08:56:45;20.60;99.90
20560;DHT22;10438;51.454;6.718;2023-07-20T08:59:12;20.60;99.90
20560;DHT22;10438;51.454;6.718;2023-07-20T09:01:39;20.40;99.90
20560;DHT22;10438;51.454;6.718;2023-07-20T09:04:05;20.40;99.90
20560;DHT22;10438;51.454;6.718;2023-07-20T09:06:31;20.60;99.90
20560;DHT22;10438;51.454;6.718;2023-07-20T09:08:57;20.80;99.90
20560;DHT22;10438;51.454;6.718;2023-07-20T09:11:22;20.90;99.90
20560;DHT22;10438;51.454;6.718;2023-07-20T09:14:02;21.00;99.90
20560;DHT22;10438;51.454;6.718;2023-07-20T09:16:28;21.10;99.90
20560;DHT22;10438;51.454;6.718;2023-07-20T09:18:58;21.10;99.90
20560;DHT22;10438;51.454;6.718;2023-07-20T09:21:23;21.00;99.90
20560;DHT22;10438;51.454;6.718;2023-07-20T09:23:56;21.30;99.90
20560;DHT22;10438;51.454;6.718;2023-07-20T09:26:22;21.50;99.90
20560;DHT22;10438;51.454;6.718;2023-07-20T09:28:50;21.60;99.90
20560;DHT22;10438;51.454;6.718;2023-07-20T09:31:18;21.80;99.90
20560;DHT22;10438;51.454;6.718;2023-07-20T09:33:44;21.80;99.90
20560;DHT22;10438;51.454;6.718;2023-07-20T09:36:10;21.90;99.90
20560;DHT22;10438;51.454;6.718;2023-07-20T09:38:41;21.90;99.90
20560;DHT22;10438;51.454;6.718;2023-07-20T09:41:06;21.90;99.90
20560;DHT22;10438;51.454;6.718;2023-07-20T09:43:33;22.20;99.90
20560;DHT22;10438;51.454;6.718;2023-07-20T09:45:59;22.40;99.90
20560;DHT22;10438;51.454;6.718;2023-07-20T09:48:25;22.40;99.90
20560;DHT22;10438;51.454;6.718;2023-07-20T09:50:54;22.50;99.90
20560;DHT22;10438;51.454;6.718;2023-07-20T09:53:20;22.70;99.90
20560;DHT22;10438;51.454;6.718;2023-07-20T09:55:47;22.70;99.90
20560;DHT22;10438;51.454;6.718;2023-07-20T09:58:14;22.50;99.90
20560;DHT22;10438;51.454;6.718;2023-07-20T10:00:40;22.70;99.90
20560;DHT22;10438;51.454;6.718;2023-07-20T10:03:16;22.70;99.90
20560;DHT22;10438;51.454;6.718;2023-07-20T10:05:47;22.80;99.90
20560;DHT22;10438;51.454;6.718;2023-07-20T10:08:15;22.50;99.90
20560;DHT22;10438;51.454;6.718;2023-07-20T10:10:42;22.20;99.90
20560;DHT22;10438;51.454;6.718;2023-07-20T10:13:20;22.30;99.90
20560;DHT22;10438;51.454;6.718;2023-07-20T10:16:06;22.60;99.90
20560;DHT22;10438;51.454;6.718;2023-07-20T10:18:42;22.90;99.90
20560;DHT22;10438;51.454;6.718;2023-07-20T10:21:14;22.50;99.90
20560;DHT22;10438;51.454;6.718;2023-07-20T10:23:42;22.30;99.90
20560;DHT22;10438;51.454;6.718;2023-07-20T10:26:08;22.70;99.90
20560;DHT22;10438;51.454;6.718;2023-07-20T10:28:34;22.70;99.90
20560;DHT22;10438;51.454;6.718;2023-07-20T10:30:59;23.10;99.90
20560;DHT22;10438;51.454;6.718;2023-07-20T10:33:25;23.30;94.00
20560;DHT22;10438;51.454;6.718;2023-07-20T10:36:11;23.30;90.00
20560;DHT22;10438;51.454;6.718;2023-07-20T10:38:41;23.70;99.80
20560;DHT22;10438;51.454;6.718;2023-07-20T10:41:20;23.80;97.50
20560;DHT22;10438;51.454;6.718;2023-07-20T10:43:47;24.10;94.20
20560;DHT22;10438;51.454;6.718;2023-07-20T10:46:13;24.30;90.50
20560;DHT22;10438;51.454;6.718;2023-07-20T10:49:02;23.50;70.50
20560;DHT22;10438;51.454;6.718;2023-07-20T10:51:28;23.50;93.90
20560;DHT22;10438;51.454;6.718;2023-07-20T10:53:56;23.70;99.30
20560;DHT22;10438;51.454;6.718;2023-07-20T10:56:26;23.70;75.80
20560;DHT22;10438;51.454;6.718;2023-07-20T10:58:58;23.30;81.70
20560;DHT22;10438;51.454;6.718;2023-07-20T11:01:28;23.00;76.60
20560;DHT22;10438;51.454;6.718;2023-07-20T11:03:58;22.80;84.50
20560;DHT22;10438;51.454;6.718;2023-07-20T11:11:28;23.60;69.80
20560;DHT22;10438;51.454;6.718;2023-07-20T11:16:45;23.70;72.00
20560;DHT22;10438;51.454;6.718;2023-07-20T11:19:19;23.70;76.50
20560;DHT22;10438;51.454;6.718;2023-07-20T11:21:49;24.00;86.20
20560;DHT22;10438;51.454;6.718;2023-07-20T11:24:15;23.90;69.70
20560;DHT22;10438;51.454;6.718;2023-07-20T11:26:49;23.50;72.30
20560;DHT22;10438;51.454;6.718;2023-07-20T11:29:22;23.40;70.70
20560;DHT22;10438;51.454;6.718;2023-07-20T11:31:49;22.90;55.60
20560;DHT22;10438;51.454;6.718;2023-07-20T11:34:19;22.90;72.80
20560;DHT22;10438;51.454;6.718;2023-07-20T11:36:50;22.90;78.00
20560;DHT22;10438;51.454;6.718;2023-07-20T11:39:17;22.70;75.00
20560;DHT22;10438;51.454;6.718;2023-07-20T11:41:52;22.60;83.50
20560;DHT22;10438;51.454;6.718;2023-07-20T11:44:18;22.70;91.50
20560;DHT22;10438;51.454;6.718;2023-07-20T11:46:44;23.20;76.90
20560;DHT22;10438;51.454;6.718;2023-07-20T11:49:11;23.80;73.00
20560;DHT22;10438;51.454;6.718;2023-07-20T11:51:37;23.90;71.20
20560;DHT22;10438;51.454;6.718;2023-07-20T11:54:04;23.90;74.70
20560;DHT22;10438;51.454;6.718;2023-07-20T11:56:30;24.10;69.20
20560;DHT22;10438;51.454;6.718;2023-07-20T11:58:57;23.80;68.20
20560;DHT22;10438;51.454;6.718;2023-07-20T12:01:25;23.40;69.70
20560;DHT22;10438;51.454;6.718;2023-07-20T12:03:55;23.20;72.00
20560;DHT22;10438;51.454;6.718;2023-07-20T12:06:23;23.10;68.40
20560;DHT22;10438;51.454;6.718;2023-07-20T12:08:50;23.00;69.50
20560;DHT22;10438;51.454;6.718;2023-07-20T12:11:39;23.00;68.80
20560;DHT22;10438;51.454;6.718;2023-07-20T12:14:08;22.90;64.70
20560;DHT22;10438;51.454;6.718;2023-07-20T12:16:35;22.80;71.10
20560;DHT22;10438;51.454;6.718;2023-07-20T12:19:12;22.60;58.30
20560;DHT22;10438;51.454;6.718;2023-07-20T12:21:39;22.20;62.70
20560;DHT22;10438;51.454;6.718;2023-07-20T12:24:08;22.10;69.60
20560;DHT22;10438;51.454;6.718;2023-07-20T12:26:35;22.00;68.30
20560;DHT22;10438;51.454;6.718;2023-07-20T12:29:01;22.00;85.30
20560;DHT22;10438;51.454;6.718;2023-07-20T12:31:28;22.10;87.30
20560;DHT22;10438;51.454;6.718;2023-07-20T12:33:56;22.30;90.60
20560;DHT22;10438;51.454;6.718;2023-07-20T12:36:22;22.80;80.40
20560;DHT22;10438;51.454;6.718;2023-07-20T12:38:47;23.10;69.00
20560;DHT22;10438;51.454;6.718;2023-07-20T12:41:14;23.60;56.00
20560;DHT22;10438;51.454;6.718;2023-07-20T12:43:43;23.70;70.90
20560;DHT22;10438;51.454;6.718;2023-07-20T12:46:09;23.70;48.40
20560;DHT22;10438;51.454;6.718;2023-07-20T12:48:36;24.10;53.60
20560;DHT22;10438;51.454;6.718;2023-07-20T12:51:03;24.30;44.00
20560;DHT22;10438;51.454;6.718;2023-07-20T12:53:31;24.40;39.30
20560;DHT22;10438;51.454;6.718;2023-07-20T12:55:56;24.70;35.60
20560;DHT22;10438;51.454;6.718;2023-07-20T12:58:22;24.70;39.60
20560;DHT22;10438;51.454;6.718;2023-07-20T13:00:47;25.30;31.30
20560;DHT22;10438;51.454;6.718;2023-07-20T13:03:13;25.00;30.80
20560;DHT22;10438;51.454;6.718;2023-07-20T13:05:38;25.20;40.80
20560;DHT22;10438;51.454;6.718;2023-07-20T13:08:04;25.00;40.50
20560;DHT22;10438;51.454;6.718;2023-07-20T13:10:31;25.20;42.40
20560;DHT22;10438;51.454;6.718;2023-07-20T13:12:56;25.10;39.00
20560;DHT22;10438;51.454;6.718;2023-07-20T13:15:24;25.00;29.70
20560;DHT22;10438;51.454;6.718;2023-07-20T13:17:55;24.70;41.00
20560;DHT22;10438;51.454;6.718;2023-07-20T13:20:20;24.50;39.30
20560;DHT22;10438;51.454;6.718;2023-07-20T13:22:46;24.30;46.50
20560;DHT22;10438;51.454;6.718;2023-07-20T13:25:12;24.00;51.40
20560;DHT22;10438;51.454;6.718;2023-07-20T13:27:38;23.90;45.50
20560;DHT22;10438;51.454;6.718;2023-07-20T13:30:04;23.70;46.50
20560;DHT22;10438;51.454;6.718;2023-07-20T13:32:33;23.50;43.60
20560;DHT22;10438;51.454;6.718;2023-07-20T13:34:59;23.30;54.30
20560;DHT22;10438;51.454;6.718;2023-07-20T13:37:24;23.10;59.40
20560;DHT22;10438;51.454;6.718;2023-07-20T13:39:50;23.20;64.70
20560;DHT22;10438;51.454;6.718;2023-07-20T13:42:16;23.30;56.20
20560;DHT22;10438;51.454;6.718;2023-07-20T13:44:42;23.30;57.00
20560;DHT22;10438;51.454;6.718;2023-07-20T13:47:08;23.40;51.10
20560;DHT22;10438;51.454;6.718;2023-07-20T13:49:33;23.40;40.70
20560;DHT22;10438;51.454;6.718;2023-07-20T13:51:59;23.20;49.70
20560;DHT22;10438;51.454;6.718;2023-07-20T13:54:25;23.20;56.00
20560;DHT22;10438;51.454;6.718;2023-07-20T13:56:51;23.40;57.30
20560;DHT22;10438;51.454;6.718;2023-07-20T13:59:17;23.70;45.50
20560;DHT22;10438;51.454;6.718;2023-07-20T14:01:43;23.80;53.70
20560;DHT22;10438;51.454;6.718;2023-07-20T14:04:08;24.00;46.60
20560;DHT22;10438;51.454;6.718;2023-07-20T14:06:34;23.70;44.40
20560;DHT22;10438;51.454;6.718;2023-07-20T14:09:00;23.60;37.90
20560;DHT22;10438;51.454;6.718;2023-07-20T14:11:26;23.50;34.70
20560;DHT22;10438;51.454;6.718;2023-07-20T14:13:52;23.30;49.20
20560;DHT22;10438;51.454;6.718;2023-07-20T14:16:19;23.20;46.80
20560;DHT22;10438;51.454;6.718;2023-07-20T14:18:45;23.20;35.20
20560;DHT22;10438;51.454;6.718;2023-07-20T14:21:12;23.40;55.10
20560;DHT22;10438;51.454;6.718;2023-07-20T14:23:38;23.70;49.10
20560;DHT22;10438;51.454;6.718;2023-07-20T14:26:03;24.30;48.90
20560;DHT22;10438;51.454;6.718;2023-07-20T14:28:34;24.70;40.30
20560;DHT22;10438;51.454;6.718;2023-07-20T14:31:00;25.50;32.30
20560;DHT22;10438;51.454;6.718;2023-07-20T14:33:25;26.40;23.80
20560;DHT22;10438;51.454;6.718;2023-07-20T14:35:51;26.80;17.60
20560;DHT22;10438;51.454;6.718;2023-07-20T14:38:16;26.80;13.00
20560;DHT22;10438;51.454;6.718;2023-07-20T14:40:42;26.90;12.90
20560;DHT22;10438;51.454;6.718;2023-07-20T14:43:07;27.00;15.30
20560;DHT22;10438;51.454;6.718;2023-07-20T14:45:33;27.20;15.60
20560;DHT22;10438;51.454;6.718;2023-07-20T14:47:59;27.60;16.40
20560;DHT22;10438;51.454;6.718;2023-07-20T14:50:25;27.90;11.20
20560;DHT22;10438;51.454;6.718;2023-07-20T14:52:50;27.70;9.10
20560;DHT22;10438;51.454;6.718;2023-07-20T14:55:16;27.10;10.60
20560;DHT22;10438;51.454;6.718;2023-07-20T14:57:42;26.60;13.50
20560;DHT22;10438;51.454;6.718;2023-07-20T15:00:08;25.90;15.00
20560;DHT22;10438;51.454;6.718;2023-07-20T15:02:39;25.50;16.30
20560;DHT22;10438;51.454;6.718;2023-07-20T15:05:08;25.50;17.10
20560;DHT22;10438;51.454;6.718;2023-07-20T15:07:34;25.40;18.40
20560;DHT22;10438;51.454;6.718;2023-07-20T15:10:01;25.40;19.60
20560;DHT22;10438;51.454;6.718;2023-07-20T15:12:26;25.50;20.30
20560;DHT22;10438;51.454;6.718;2023-07-20T15:15:06;25.50;23.40
20560;DHT22;10438;51.454;6.718;2023-07-20T15:17:32;26.20;16.60
20560;DHT22;10438;51.454;6.718;2023-07-20T15:19:58;26.50;16.90
20560;DHT22;10438;51.454;6.718;2023-07-20T15:22:24;27.30;9.40
20560;DHT22;10438;51.454;6.718;2023-07-20T15:24:50;28.00;9.70
20560;DHT22;10438;51.454;6.718;2023-07-20T15:27:16;28.40;6.20
20560;DHT22;10438;51.454;6.718;2023-07-20T15:29:41;28.60;1.30
20560;DHT22;10438;51.454;6.718;2023-07-20T15:32:07;29.20;1.40
20560;DHT22;10438;51.454;6.718;2023-07-20T15:34:34;29.10;1.00
20560;DHT22;10438;51.454;6.718;2023-07-20T15:36:59;29.10;1.00
20560;DHT22;10438;51.454;6.718;2023-07-20T15:39:25;29.10;1.00
20560;DHT22;10438;51.454;6.718;2023-07-20T15:41:52;29.10;1.00
20560;DHT22;10438;51.454;6.718;2023-07-20T15:44:18;29.00;1.00
20560;DHT22;10438;51.454;6.718;2023-07-20T15:46:45;29.30;1.00